createdAt,value
2019-03-11T00:01:47.794Z,5.71
2019-03-11T00:04:49.740Z,5.38
2019-03-11T00:07:51.627Z,5.24
2019-03-11T00:10:54.830Z,5.12
2019-03-11T00:13:56.878Z,5.05
2019-03-11T00:16:58.879Z,4.89
2019-03-11T00:20:00.798Z,4.74
2019-03-11T00:23:02.691Z,4.62
2019-03-11T00:26:04.553Z,4.59
2019-03-11T00:29:06.494Z,4.50
2019-03-11T00:32:08.502Z,4.40
2019-03-11T00:35:10.462Z,4.37
2019-03-11T00:38:12.335Z,4.37
2019-03-11T00:41:14.267Z,4.34
2019-03-11T00:44:16.189Z,4.19
2019-03-11T00:47:18.238Z,4.11
2019-03-11T00:50:20.174Z,4.08
2019-03-11T00:53:22.052Z,4.09
2019-03-11T00:56:23.965Z,4.01
2019-03-11T00:59:25.893Z,4.02
2019-03-11T01:02:27.873Z,3.97
2019-03-11T01:05:29.725Z,3.97
2019-03-11T01:08:31.617Z,3.96
2019-03-11T01:11:33.463Z,3.98
2019-03-11T01:14:36.005Z,4.00
2019-03-11T01:17:38.120Z,3.94
2019-03-11T01:20:40.047Z,3.92
2019-03-11T01:23:42.066Z,3.86
2019-03-11T01:26:44.356Z,3.84
2019-03-11T01:29:46.269Z,3.82
2019-03-11T01:32:48.304Z,3.81
2019-03-11T01:35:50.179Z,3.73
2019-03-11T01:38:52.094Z,3.72
2019-03-11T01:41:54.338Z,3.75
2019-03-11T01:44:56.166Z,3.71
2019-03-11T01:47:58.071Z,3.62
2019-03-11T01:50:59.927Z,3.62
2019-03-11T01:54:01.817Z,3.60
2019-03-11T01:57:04.681Z,3.56
2019-03-11T02:00:10.193Z,3.55
2019-03-11T02:03:12.144Z,3.53
2019-03-11T02:06:14.021Z,3.58
2019-03-11T02:09:15.963Z,3.55
2019-03-11T02:12:17.977Z,3.60
2019-03-11T02:15:19.943Z,3.56
2019-03-11T02:18:21.810Z,3.58
2019-03-11T02:21:23.776Z,3.65
2019-03-11T02:24:25.684Z,3.71
2019-03-11T02:27:27.942Z,3.75
2019-03-11T02:30:30.021Z,3.70
2019-03-11T02:33:31.992Z,3.74
2019-03-11T02:36:33.858Z,3.74
2019-03-11T02:39:35.779Z,3.81
2019-03-11T02:42:37.646Z,3.80
2019-03-11T02:45:39.578Z,3.80
2019-03-11T02:48:41.408Z,3.81
2019-03-11T02:51:43.281Z,3.80
2019-03-11T02:54:45.140Z,3.75
2019-03-11T02:57:47.058Z,3.75
2019-03-11T03:00:51.898Z,3.75
2019-03-11T03:03:58.786Z,3.77
2019-03-11T03:07:00.611Z,3.74
2019-03-11T03:10:04.805Z,3.79
2019-03-11T03:13:06.717Z,3.82
2019-03-11T03:16:08.673Z,3.80
2019-03-11T03:19:10.607Z,3.82
2019-03-11T03:22:12.464Z,3.77
2019-03-11T03:25:14.369Z,3.75
2019-03-11T03:28:16.319Z,3.76
2019-03-11T03:31:18.201Z,3.70
2019-03-11T03:34:20.630Z,3.70
2019-03-11T03:37:22.483Z,3.69
2019-03-11T03:40:24.765Z,3.64
2019-03-11T03:43:26.695Z,3.54
2019-03-11T03:46:28.646Z,3.59
2019-03-11T03:49:30.514Z,3.60
2019-03-11T03:52:32.994Z,3.69
2019-03-11T03:55:34.871Z,3.73
2019-03-11T03:58:36.864Z,3.71
2019-03-11T04:01:38.829Z,3.73
2019-03-11T04:04:40.815Z,3.78
2019-03-11T04:07:42.709Z,3.80
2019-03-11T04:10:44.692Z,3.82
2019-03-11T04:13:46.558Z,3.84
2019-03-11T04:16:48.524Z,3.89
2019-03-11T04:19:50.513Z,3.90
2019-03-11T04:22:52.505Z,4.00
2019-03-11T04:25:54.384Z,3.98
2019-03-11T04:28:56.432Z,4.02
2019-03-11T04:31:58.323Z,4.01
2019-03-11T04:35:00.483Z,4.05
2019-03-11T04:38:02.377Z,4.08
2019-03-11T04:41:06.222Z,4.01
2019-03-11T04:44:08.135Z,4.00
2019-03-11T04:47:10.030Z,4.01
2019-03-11T04:50:16.335Z,4.07
2019-03-11T04:53:18.277Z,4.05
2019-03-11T04:56:20.202Z,3.99
2019-03-11T04:59:22.099Z,3.96
2019-03-11T05:02:24.052Z,3.97
2019-03-11T05:05:26.053Z,3.96
2019-03-11T05:08:27.953Z,3.87
2019-03-11T05:11:29.878Z,3.89
2019-03-11T05:14:31.786Z,3.93
2019-03-11T05:17:33.759Z,3.94
2019-03-11T05:20:35.731Z,3.97
2019-03-11T05:23:37.706Z,3.89
2019-03-11T05:26:39.533Z,3.92
2019-03-11T05:29:42.625Z,3.91
2019-03-11T05:32:44.514Z,3.86
2019-03-11T05:35:46.504Z,3.85
2019-03-11T05:38:48.443Z,3.82
2019-03-11T05:41:50.353Z,3.80
2019-03-11T05:44:52.258Z,3.85
2019-03-11T05:47:54.125Z,3.83
2019-03-11T05:50:56.391Z,3.90
2019-03-11T05:53:58.292Z,3.95
2019-03-11T05:57:00.242Z,3.87
2019-03-11T06:00:04.231Z,3.92
2019-03-11T06:03:06.127Z,3.94
2019-03-11T06:06:08.092Z,4.00
2019-03-11T06:09:10.126Z,4.06
2019-03-11T06:12:11.978Z,4.10
2019-03-11T06:15:14.610Z,4.13
2019-03-11T06:18:18.436Z,4.19
2019-03-11T06:21:25.234Z,4.24
2019-03-11T06:24:27.138Z,4.31
2019-03-11T06:27:29.047Z,4.37
2019-03-11T06:30:31.244Z,4.39
2019-03-11T06:33:33.196Z,4.41
2019-03-11T06:36:37.062Z,4.49
2019-03-11T06:39:55.894Z,4.56
2019-03-11T06:42:58.086Z,4.67
2019-03-11T06:46:00.065Z,4.72
2019-03-11T06:49:02.029Z,4.80
2019-03-11T06:52:04.163Z,4.85
2019-03-11T06:55:08.085Z,4.86
2019-03-11T06:58:10.025Z,4.94
2019-03-11T07:01:11.958Z,5.01
2019-03-11T07:04:13.858Z,5.10
2019-03-11T07:07:15.698Z,5.17
2019-03-11T07:10:17.655Z,5.15
2019-03-11T07:13:19.721Z,5.16
2019-03-11T07:16:21.724Z,5.65
2019-03-11T07:19:23.713Z,6.26
2019-03-11T07:22:25.612Z,6.61
2019-03-11T07:25:27.526Z,6.64
2019-03-11T07:28:29.472Z,6.69
2019-03-11T07:31:31.406Z,6.59
2019-03-11T07:34:33.323Z,6.46
2019-03-11T07:37:35.307Z,7.44
2019-03-11T07:40:37.232Z,8.52
2019-03-11T07:43:39.303Z,8.80
2019-03-11T07:46:41.142Z,9.48
2019-03-11T07:49:43.111Z,9.40
2019-03-11T07:52:45.002Z,9.79
2019-03-11T07:55:47.966Z,9.80
2019-03-11T07:58:50.249Z,10.20
2019-03-11T08:01:52.426Z,10.50
2019-03-11T08:04:54.556Z,10.71
2019-03-11T08:07:57.818Z,10.88
2019-03-11T08:10:59.886Z,10.93
2019-03-11T08:14:01.966Z,11.21
2019-03-11T08:17:03.899Z,11.49
2019-03-11T08:20:09.071Z,11.56
2019-03-11T08:23:11.142Z,11.54
2019-03-11T08:26:13.094Z,11.67
2019-03-11T08:29:15.030Z,11.21
2019-03-11T08:32:17.022Z,10.60
2019-03-11T08:35:18.903Z,10.26
2019-03-11T08:38:20.836Z,10.05
2019-03-11T08:41:22.690Z,9.86
2019-03-11T08:44:24.859Z,9.66
2019-03-11T08:47:26.825Z,9.50
2019-03-11T08:50:28.743Z,9.64
2019-03-11T08:53:30.691Z,9.80
2019-03-11T08:56:32.641Z,9.85
2019-03-11T08:59:34.633Z,10.01
2019-03-11T09:02:36.534Z,9.90
2019-03-11T09:05:38.462Z,9.71
2019-03-11T09:08:40.363Z,9.72
2019-03-11T09:11:42.329Z,9.73
2019-03-11T09:14:44.588Z,9.72
2019-03-11T09:17:47.148Z,10.01
2019-03-11T09:20:49.058Z,10.29
2019-03-11T09:23:51.057Z,10.41
2019-03-11T09:26:52.982Z,10.25
2019-03-11T09:29:54.974Z,10.21
2019-03-11T09:32:57.017Z,9.99
2019-03-11T09:35:58.916Z,9.75
2019-03-11T09:39:00.860Z,9.59
2019-03-11T09:42:02.769Z,9.58
2019-03-11T09:45:08.874Z,9.51
2019-03-11T09:48:10.746Z,9.41
2019-03-11T09:51:14.086Z,9.54
2019-03-11T09:54:16.116Z,9.82
2019-03-11T09:57:18.025Z,10.06
2019-03-11T10:00:22.914Z,10.19
2019-03-11T10:03:24.833Z,10.35
2019-03-11T10:06:26.804Z,10.42
2019-03-11T10:09:28.748Z,10.36
2019-03-11T10:12:30.654Z,10.45
2019-03-11T10:15:33.242Z,10.70
2019-03-11T10:18:35.269Z,10.92
2019-03-11T10:21:37.271Z,11.27
2019-03-11T10:24:39.343Z,11.59
2019-03-11T10:27:41.288Z,11.54
2019-03-11T10:30:43.166Z,11.66
2019-03-11T10:33:45.101Z,11.67
2019-03-11T10:36:47.224Z,11.61
2019-03-11T10:39:49.188Z,11.55
2019-03-11T10:42:51.156Z,11.39
2019-03-11T10:45:53.248Z,11.37
2019-03-11T10:48:55.151Z,11.39
2019-03-11T10:51:57.070Z,11.69
2019-03-11T10:54:59.911Z,11.74
2019-03-11T10:58:01.942Z,11.92
2019-03-11T11:01:04.035Z,12.10
2019-03-11T11:04:05.959Z,12.07
2019-03-11T11:07:08.469Z,11.82
2019-03-11T11:10:14.952Z,11.67
2019-03-11T11:13:16.888Z,11.44
2019-03-11T11:16:18.853Z,11.22
2019-03-11T11:19:20.750Z,11.15
2019-03-11T11:22:22.664Z,10.85
2019-03-11T11:25:27.078Z,10.65
2019-03-11T11:28:29.042Z,10.54
2019-03-11T11:31:30.948Z,10.35
2019-03-11T11:34:32.870Z,10.39
2019-03-11T11:37:34.791Z,10.61
2019-03-11T11:40:36.747Z,11.06
2019-03-11T11:43:38.670Z,11.51
2019-03-11T11:46:40.755Z,11.84
2019-03-11T11:49:42.658Z,12.00
2019-03-11T11:52:44.788Z,11.90
2019-03-11T11:55:57.063Z,11.90
2019-03-11T11:58:50.641Z,12.04
2019-03-11T12:02:03.366Z,12.18
2019-03-11T12:04:58.732Z,12.30
2019-03-11T12:08:00.572Z,12.46
2019-03-11T12:11:02.525Z,12.21
2019-03-11T12:14:04.531Z,12.02
2019-03-11T12:17:07.431Z,11.63
2019-03-11T12:20:12.670Z,10.91
2019-03-11T12:23:14.653Z,10.11
2019-03-11T12:26:16.511Z,9.68
2019-03-11T12:29:18.463Z,9.61
2019-03-11T12:32:20.480Z,9.69
2019-03-11T12:35:22.753Z,9.09
2019-03-11T12:38:24.653Z,8.75
2019-03-11T12:41:26.502Z,8.06
2019-03-11T12:44:29.685Z,7.64
2019-03-11T12:47:31.872Z,7.36
2019-03-11T12:50:34.484Z,7.15
2019-03-11T12:53:36.383Z,6.94
2019-03-11T12:56:38.318Z,6.84
2019-03-11T12:59:40.897Z,6.70
2019-03-11T13:02:43.146Z,6.77
2019-03-11T13:05:45.059Z,6.76
2019-03-11T13:08:47.009Z,6.98
2019-03-11T13:11:48.959Z,7.57
2019-03-11T13:14:50.864Z,7.87
2019-03-11T13:17:52.851Z,8.17
2019-03-11T13:20:54.746Z,8.19
2019-03-11T13:23:56.719Z,8.02
2019-03-11T13:26:58.673Z,8.00
2019-03-11T13:30:00.568Z,7.88
2019-03-11T13:33:02.487Z,7.95
2019-03-11T13:36:06.158Z,8.21
2019-03-11T13:39:09.114Z,8.37
2019-03-11T13:42:10.992Z,8.50
2019-03-11T13:45:16.534Z,8.56
2019-03-11T13:48:18.659Z,8.61
2019-03-11T13:51:20.583Z,8.76
2019-03-11T13:54:22.515Z,8.84
2019-03-11T13:57:24.607Z,8.88
2019-03-11T14:00:26.488Z,8.76
2019-03-11T14:03:28.424Z,8.54
2019-03-11T14:06:30.331Z,8.31
2019-03-11T14:09:32.300Z,8.07
2019-03-11T14:12:34.319Z,7.84
2019-03-11T14:15:37.344Z,7.56
2019-03-11T14:18:39.443Z,7.33
2019-03-11T14:21:41.400Z,7.23
2019-03-11T14:24:43.249Z,7.11
2019-03-11T14:27:45.210Z,7.16
2019-03-11T14:30:47.202Z,7.11
2019-03-11T14:33:49.754Z,7.15
2019-03-11T14:36:51.797Z,7.09
2019-03-11T14:39:53.828Z,7.08
2019-03-11T14:42:55.706Z,7.14
2019-03-11T14:45:57.686Z,7.19
2019-03-11T14:48:59.659Z,7.21
2019-03-11T14:52:01.592Z,7.27
2019-03-11T14:55:05.507Z,7.24
2019-03-11T14:58:07.699Z,7.19
2019-03-11T15:01:09.565Z,7.04
2019-03-11T15:04:11.616Z,6.87
2019-03-11T15:07:13.518Z,6.83
2019-03-11T15:10:17.047Z,6.88
2019-03-11T15:13:19.019Z,6.83
2019-03-11T15:16:21.025Z,6.82
2019-03-11T15:19:23.514Z,6.67
2019-03-11T15:22:25.513Z,6.73
2019-03-11T15:25:27.782Z,6.81
2019-03-11T15:28:29.897Z,6.91
2019-03-11T15:31:31.946Z,6.96
2019-03-11T15:34:33.908Z,6.85
2019-03-11T15:37:35.771Z,6.73
2019-03-11T15:40:37.814Z,6.66
2019-03-11T15:43:39.730Z,6.44
2019-03-11T15:46:41.833Z,6.21
2019-03-11T15:49:43.961Z,6.07
2019-03-11T15:52:45.978Z,6.06
2019-03-11T15:55:47.971Z,6.19
2019-03-11T15:58:49.824Z,6.43
2019-03-11T16:01:51.757Z,6.49
2019-03-11T16:04:54.939Z,6.60
2019-03-11T16:07:56.816Z,6.53
2019-03-11T16:10:58.792Z,6.55
2019-03-11T16:14:00.681Z,6.53
2019-03-11T16:17:03.354Z,6.52
2019-03-11T16:20:08.864Z,6.39
2019-03-11T16:23:10.830Z,6.29
2019-03-11T16:26:12.744Z,5.96
2019-03-11T16:29:14.654Z,5.67
2019-03-11T16:32:16.532Z,5.46
2019-03-11T16:35:19.354Z,5.15
2019-03-11T16:38:21.270Z,5.00
2019-03-11T16:41:23.197Z,4.80
2019-03-11T16:44:25.131Z,4.65
2019-03-11T16:47:28.024Z,4.52
2019-03-11T16:50:30.149Z,4.44
2019-03-11T16:53:32.084Z,4.34
2019-03-11T16:56:34.083Z,4.28
2019-03-11T16:59:38.910Z,4.29
2019-03-11T17:02:40.975Z,4.32
2019-03-11T17:05:42.976Z,4.43
2019-03-11T17:08:44.926Z,4.46
2019-03-11T17:11:46.812Z,4.50
2019-03-11T17:14:48.715Z,4.57
2019-03-11T17:17:50.611Z,4.55
2019-03-11T17:20:53.023Z,4.47
2019-03-11T17:23:54.928Z,4.42
2019-03-11T17:26:56.880Z,4.31
2019-03-11T17:29:59.478Z,4.28
2019-03-11T17:33:03.126Z,4.16
2019-03-11T17:36:05.288Z,4.08
2019-03-11T17:39:09.932Z,3.98
2019-03-11T17:42:13.797Z,3.88
2019-03-11T17:45:18.957Z,3.78
2019-03-11T17:48:20.928Z,3.71
2019-03-11T17:51:23.169Z,3.68
2019-03-11T17:54:27.516Z,3.73
2019-03-11T17:57:29.615Z,3.74
2019-03-11T18:00:35.112Z,3.78
2019-03-11T18:03:36.985Z,3.75
2019-03-11T18:06:38.905Z,3.79
2019-03-11T18:09:41.309Z,3.75
2019-03-11T18:12:43.201Z,3.75
2019-03-11T18:15:46.613Z,3.81
2019-03-11T18:18:48.875Z,3.92
2019-03-11T18:21:50.839Z,3.93
2019-03-11T18:24:53.573Z,3.97
2019-03-11T18:27:57.120Z,3.96
2019-03-11T18:30:59.793Z,3.93
2019-03-11T18:34:04.011Z,4.00
2019-03-11T18:37:06.268Z,4.05
2019-03-11T18:40:10.861Z,4.04
2019-03-11T18:43:20.578Z,4.05
2019-03-11T18:46:17.845Z,3.98
2019-03-11T18:49:20.067Z,3.93
2019-03-11T18:52:25.868Z,3.87
2019-03-11T18:55:27.800Z,3.81
2019-03-11T18:58:30.642Z,3.75
2019-03-11T19:01:35.071Z,3.77
2019-03-11T19:04:38.413Z,3.69
2019-03-11T19:07:40.832Z,3.67
2019-03-11T19:10:43.510Z,3.60
2019-03-11T19:13:45.917Z,3.57
2019-03-11T19:16:47.949Z,3.55
2019-03-11T19:19:49.910Z,3.49
2019-03-11T19:22:52.154Z,3.56
2019-03-11T19:25:55.229Z,3.54
2019-03-11T19:28:58.517Z,3.55
2019-03-11T19:32:00.551Z,3.42
2019-03-11T19:35:04.492Z,3.44
2019-03-11T19:38:08.278Z,3.40
2019-03-11T19:41:12.972Z,3.38
2019-03-11T19:44:15.431Z,3.43
2019-03-11T19:47:17.353Z,3.48
2019-03-11T19:50:20.745Z,3.49
2019-03-11T19:53:22.941Z,3.61
2019-03-11T19:56:25.157Z,3.63
2019-03-11T19:59:29.676Z,3.70
2019-03-11T20:02:31.790Z,3.74
2019-03-11T20:05:35.536Z,3.71
2019-03-11T20:08:40.422Z,3.71
2019-03-11T20:11:44.207Z,3.68
2019-03-11T20:14:47.662Z,3.73
2019-03-11T20:17:51.494Z,3.78
2019-03-11T20:20:53.528Z,3.78
2019-03-11T20:23:57.850Z,3.78
2019-03-11T20:26:59.942Z,3.83
2019-03-11T20:30:12.541Z,3.90
2019-03-11T20:33:14.671Z,3.93
2019-03-11T20:36:21.201Z,4.01
2019-03-11T20:39:20.519Z,4.05
2019-03-11T20:42:26.174Z,4.13
2019-03-11T20:45:29.548Z,4.14
2019-03-11T20:48:31.643Z,4.10
2019-03-11T20:51:35.154Z,4.13
2019-03-11T20:54:37.357Z,4.18
2019-03-11T20:57:39.960Z,4.28
2019-03-11T21:00:42.757Z,4.15
2019-03-11T21:03:46.684Z,4.03
2019-03-11T21:06:48.688Z,3.96
2019-03-11T21:09:50.624Z,3.94
2019-03-11T21:12:52.591Z,3.95
2019-03-11T21:15:54.609Z,3.90
2019-03-11T21:18:56.625Z,3.85
2019-03-11T21:21:58.617Z,3.72
2019-03-11T21:25:00.668Z,3.61
2019-03-11T21:28:02.865Z,3.54
2019-03-11T21:31:06.429Z,3.44
2019-03-11T21:34:12.401Z,3.33
2019-03-11T21:37:17.631Z,3.23
2019-03-11T21:40:23.141Z,3.14
2019-03-11T21:43:25.073Z,3.11
2019-03-11T21:46:27.122Z,3.13
2019-03-11T21:49:29.141Z,3.17
2019-03-11T21:52:31.123Z,3.27
2019-03-11T21:55:33.239Z,3.37
2019-03-11T21:58:35.587Z,3.37
2019-03-11T22:01:37.409Z,3.40
2019-03-11T22:04:39.358Z,3.38
2019-03-11T22:07:41.284Z,3.29
2019-03-11T22:10:43.257Z,3.30
2019-03-11T22:13:45.834Z,3.22
2019-03-11T22:16:47.721Z,3.20
2019-03-11T22:19:49.687Z,3.26
2019-03-11T22:22:51.525Z,3.23
2019-03-11T22:25:53.526Z,3.25
2019-03-11T22:28:55.474Z,3.29
2019-03-11T22:31:57.352Z,3.36
2019-03-11T22:35:11.684Z,3.38
2019-03-11T22:38:03.189Z,3.38
2019-03-11T22:41:05.134Z,3.40
2019-03-11T22:44:07.697Z,3.44
2019-03-11T22:47:09.587Z,3.45
2019-03-11T22:50:11.577Z,3.44
2019-03-11T22:53:13.507Z,3.42
2019-03-11T22:56:15.551Z,3.42
2019-03-11T22:59:17.534Z,3.40
2019-03-11T23:02:19.650Z,3.42
2019-03-11T23:05:21.616Z,3.41
2019-03-11T23:08:23.700Z,3.41
2019-03-11T23:11:25.650Z,3.44
2019-03-11T23:14:27.633Z,3.46
2019-03-11T23:17:29.499Z,3.45
2019-03-11T23:20:31.371Z,3.43
2019-03-11T23:23:33.343Z,3.29
2019-03-11T23:26:35.319Z,3.20
2019-03-11T23:29:37.263Z,3.15
2019-03-11T23:32:39.173Z,3.09
2019-03-11T23:35:41.063Z,3.09
2019-03-11T23:38:42.974Z,3.14
2019-03-11T23:41:44.914Z,3.16
2019-03-11T23:44:46.800Z,3.22
2019-03-11T23:47:48.707Z,3.20
2019-03-11T23:50:50.665Z,3.24
2019-03-11T23:53:52.581Z,3.28
2019-03-11T23:56:54.672Z,3.24
2019-03-11T23:59:56.661Z,3.26
